Time;durP1;ratioP1;P1;durP2;ratioP2;P2;SDS_P1;SDS_P2;PMS_P1;PMS_P2;Temp;Humidity;BMP_temperature;BMP_pressure;BME280_temperature;BME280_humidity;BME280_pressure;Samples;Min_cycle;Max_cycle;Signal;HPM_P1;HPM_P2
2021/05/08 00:00:43;;;;;;;;;;;;;;;20.16;47.10;101267.53;2100682;28;3869;-35
2021/05/08 00:01:45;;;;;;;;;;;;;;;20.16;47.33;101268.38;2100818;28;4039;-35
2021/05/08 00:02:46;;;;;;;;;;;;;;;20.16;47.24;101268.38;2100425;28;3976;-34
2021/05/08 00:03:47;;;;;;;;;;;;;;;20.16;47.20;101271.22;2101269;28;3794;-36
2021/05/08 00:04:48;;;;;;;;;;;;;;;20.16;47.13;101265.53;2100657;28;3883;-35
2021/05/08 00:05:49;;;;;;;;;;;;;;;20.18;47.19;101270.84;2101180;28;3998;-34
2021/05/08 00:06:50;;;;;;;;;;;;;;;20.18;47.21;101276.53;2101232;28;3984;-32
2021/05/08 00:07:50;;;;;;;;;;;;;;;20.18;47.21;101276.53;2100414;28;3871;-33
2021/05/08 00:08:51;;;;;;;;;;;;;;;20.18;47.11;101273.69;2101154;28;4102;-33
2021/05/08 00:09:52;;;;;;;;;;;;;;;20.19;47.27;101275.38;2100597;28;3855;-35
2021/05/08 00:10:53;;;;;;;;;;;;;;;20.19;47.29;101272.53;2092033;28;3826;-34
2021/05/08 00:11:55;;;;;;;;;;;;;;;20.19;47.16;101278.22;2091695;28;4030;-33
2021/05/08 00:12:56;;;;;;;;;;;;;;;20.20;47.28;101279.88;2097391;28;3816;-31
2021/05/08 00:13:56;;;;;;;;;;;;;;;20.20;47.22;101279.88;2101210;28;3903;-32
2021/05/08 00:14:57;;;;;;;;;;;;;;;20.20;47.37;101277.88;2100742;28;4248;-34
2021/05/08 00:15:58;;;;;;;;;;;;;;;20.21;47.24;101281.56;2101175;28;4049;-32
2021/05/08 00:16:59;;;;;;;;;;;;;;;20.21;47.21;101275.91;2101174;28;3855;-32
2021/05/08 00:18:00;;;;;;;;;;;;;;;20.21;47.21;101282.41;2100425;28;3942;-33
2021/05/08 00:19:01;;;;;;;;;;;;;;;20.21;47.42;101271.03;2100220;28;4312;-28
2021/05/08 00:20:02;;;;;;;;;;;;;;;20.22;47.35;101271.88;2101604;28;4111;-32
2021/05/08 00:21:02;;;;;;;;;;;;;;;20.22;47.27;101271.88;2100881;28;4109;-30
2021/05/08 00:22:03;;;;;;;;;;;;;;;20.22;47.27;101277.56;2098534;28;4047;-30
2021/05/08 00:23:04;;;;;;;;;;;;;;;20.22;47.33;101284.06;2101242;28;4034;-30
2021/05/08 00:24:05;;;;;;;;;;;;;;;20.22;47.27;101284.06;2100997;28;4080;-36
2021/05/08 00:25:05;;;;;;;;;;;;;;;20.23;47.43;101273.53;2100477;28;4013;-35
2021/05/08 00:26:06;;;;;;;;;;;;;;;20.23;47.42;101273.53;2096740;28;4082;-32
2021/05/08 00:27:07;;;;;;;;;;;;;;;20.23;47.35;101276.38;2091863;28;4010;-34
2021/05/08 00:28:08;;;;;;;;;;;;;;;20.23;47.33;101276.38;2092421;28;4037;-33
2021/05/08 00:29:08;;;;;;;;;;;;;;;20.23;47.41;101280.06;2097413;28;4223;-34
2021/05/08 00:30:09;;;;;;;;;;;;;;;20.24;47.37;101275.22;2100743;28;3857;-32
2021/05/08 00:31:10;;;;;;;;;;;;;;;20.23;47.40;101279.22;2099595;28;4063;-32
2021/05/08 00:32:11;;;;;;;;;;;;;;;20.23;47.31;101273.53;2100854;28;4034;-32
2021/05/08 00:33:11;;;;;;;;;;;;;;;20.24;47.35;101272.38;2100869;28;4116;-35
2021/05/08 00:34:12;;;;;;;;;;;;;;;20.25;47.39;101277.69;2101586;28;4042;-35
2021/05/08 00:35:13;;;;;;;;;;;;;;;20.24;47.38;101275.22;2100690;28;3872;-32
2021/05/08 00:36:14;;;;;;;;;;;;;;;20.23;47.46;101268.72;2100909;28;4068;-35
2021/05/08 00:37:14;;;;;;;;;;;;;;;20.23;47.24;101273.53;2100873;28;3932;-31
2021/05/08 00:38:15;;;;;;;;;;;;;;;20.24;47.38;101278.88;2101078;28;4099;-38
2021/05/08 00:39:16;;;;;;;;;;;;;;;20.24;47.47;101275.22;2101589;28;4027;-37
2021/05/08 00:40:16;;;;;;;;;;;;;;;20.24;47.46;101275.22;2102653;28;4060;-34
2021/05/08 00:41:17;;;;;;;;;;;;;;;20.26;47.39;101278.53;2102388;28;4101;-31
2021/05/08 00:42:18;;;;;;;;;;;;;;;20.25;47.39;101279.72;2101601;28;3911;-32
2021/05/08 00:43:19;;;;;;;;;;;;;;;20.26;47.42;101281.38;2102487;28;4278;-30
2021/05/08 00:44:20;;;;;;;;;;;;;;;20.25;47.48;101280.53;2102399;28;3900;-34
2021/05/08 00:45:21;;;;;;;;;;;;;;;20.26;47.41;101272.84;2101817;28;4039;-31
2021/05/08 00:46:21;;;;;;;;;;;;;;;20.24;47.43;101280.91;2102177;28;4053;-31
2021/05/08 00:47:22;;;;;;;;;;;;;;;20.25;47.49;101279.72;2101996;28;4026;-33
2021/05/08 00:48:23;;;;;;;;;;;;;;;20.27;47.57;101287.91;2102329;28;3885;-30
2021/05/08 00:49:27;;;;;;;;;;;;;;;20.26;47.45;101275.69;2101779;28;3888;-35
2021/05/08 00:50:28;;;;;;;;;;;;;;;20.28;47.50;101287.56;2102554;28;4074;-31
2021/05/08 00:51:28;;;;;;;;;;;;;;;20.28;47.53;101284.72;2102240;28;4030;-36
2021/05/08 00:52:29;;;;;;;;;;;;;;;20.28;47.55;101283.91;2101720;28;4174;-33
2021/05/08 00:53:30;;;;;;;;;;;;;;;20.28;47.31;101287.56;2102568;28;4102;-35
2021/05/08 00:54:31;;;;;;;;;;;;;;;20.27;47.47;101283.06;2102320;28;4081;-33
2021/05/08 00:55:31;;;;;;;;;;;;;;;20.27;47.56;101294.44;2102031;28;4204;-35
2021/05/08 00:56:32;;;;;;;;;;;;;;;20.28;47.55;101293.25;2101590;28;4072;-33
2021/05/08 00:57:33;;;;;;;;;;;;;;;20.28;47.51;101287.56;2102254;28;4050;-32
2021/05/08 00:58:34;;;;;;;;;;;;;;;20.29;47.53;101291.22;2102201;28;3876;-33
2021/05/08 00:59:34;;;;;;;;;;;;;;;20.29;47.46;101282.72;2102552;28;4249;-33
2021/05/08 01:00:35;;;;;;;;;;;;;;;20.29;47.58;101292.09;2101198;28;4060;-30
2021/05/08 01:01:36;;;;;;;;;;;;;;;20.29;47.51;101286.41;2102616;28;3883;-33
2021/05/08 01:02:37;;;;;;;;;;;;;;;20.29;47.59;101286.41;2102760;28;4024;-33
2021/05/08 01:03:38;;;;;;;;;;;;;;;20.30;47.50;101290.91;2102130;28;4205;-35
2021/05/08 01:04:38;;;;;;;;;;;;;;;20.30;47.38;101296.59;2101964;28;4120;-35
2021/05/08 01:05:39;;;;;;;;;;;;;;;20.30;47.51;101282.38;2101670;28;4040;-35
2021/05/08 01:06:40;;;;;;;;;;;;;;;20.30;47.58;101284.41;2102511;28;4031;-35
2021/05/08 01:07:41;;;;;;;;;;;;;;;20.31;47.55;101286.06;2102048;28;4177;-33
2021/05/08 01:08:41;;;;;;;;;;;;;;;20.31;47.41;101284.03;2100953;28;3943;-33
2021/05/08 01:09:42;;;;;;;;;;;;;;;20.30;47.53;101288.06;2101538;28;4004;-33
2021/05/08 01:10:43;;;;;;;;;;;;;;;20.30;47.39;101285.22;2102755;28;3911;-30
2021/05/08 01:11:44;;;;;;;;;;;;;;;20.30;47.43;101285.22;2101724;28;3862;-33
2021/05/08 01:12:45;;;;;;;;;;;;;;;20.29;47.59;101286.41;2101844;28;4000;-32
2021/05/08 01:13:45;;;;;;;;;;;;;;;20.30;47.48;101288.06;2100593;28;4022;-31
2021/05/08 01:14:46;;;;;;;;;;;;;;;20.30;47.58;101293.75;2101886;28;4037;-35
2021/05/08 01:15:47;;;;;;;;;;;;;;;20.31;47.55;101289.72;2101860;28;4065;-32
2021/05/08 01:16:47;;;;;;;;;;;;;;;20.31;47.54;101288.91;2102031;28;3864;-32
2021/05/08 01:17:48;;;;;;;;;;;;;;;20.30;47.40;101285.22;2085902;28;3991;-34
2021/05/08 01:18:52;;;;;;;;;;;;;;;20.31;47.42;101284.03;2100997;28;4006;-37
2021/05/08 01:19:53;;;;;;;;;;;;;;;20.31;47.55;101286.88;2101931;28;4030;-31
2021/05/08 01:20:54;;;;;;;;;;;;;;;20.31;47.56;101286.88;2102109;28;3976;-33
2021/05/08 01:21:54;;;;;;;;;;;;;;;20.32;47.41;101284.88;2102100;28;4960;-32
2021/05/08 01:22:55;;;;;;;;;;;;;;;20.31;47.45;101281.19;2102343;28;4033;-36
2021/05/08 01:23:56;;;;;;;;;;;;;;;20.32;47.48;101282.88;2102232;28;3973;-34
2021/05/08 01:24:57;;;;;;;;;;;;;;;20.33;47.52;101289.41;2101704;28;3966;-32
2021/05/08 01:25:58;;;;;;;;;;;;;;;20.32;47.47;101287.72;2102402;28;4007;-35
2021/05/08 01:26:58;;;;;;;;;;;;;;;20.31;47.55;101289.72;2099921;28;4416;-31
2021/05/08 01:27:59;;;;;;;;;;;;;;;20.32;47.65;101285.72;2099626;28;3933;-33
2021/05/08 01:29:00;;;;;;;;;;;;;;;20.32;47.55;101282.88;2090833;28;3837;-32
2021/05/08 01:30:01;;;;;;;;;;;;;;;20.32;47.54;101288.56;2090777;28;3954;-33
2021/05/08 01:31:01;;;;;;;;;;;;;;;20.33;47.58;101290.22;2099419;28;4901;-37
2021/05/08 01:32:02;;;;;;;;;;;;;;;20.33;47.56;101295.09;2100022;28;4068;-36
2021/05/08 01:33:03;;;;;;;;;;;;;;;20.32;47.63;101288.56;2102225;28;4044;-31
2021/05/08 01:34:04;;;;;;;;;;;;;;;20.32;47.69;101291.41;2102101;28;4131;-33
2021/05/08 01:35:04;;;;;;;;;;;;;;;20.32;47.50;101288.56;2099856;28;4205;-34
2021/05/08 01:36:05;;;;;;;;;;;;;;;20.34;47.62;101285.38;2101870;28;3935;-32
2021/05/08 01:37:06;;;;;;;;;;;;;;;20.34;47.54;101293.91;2102008;28;4066;-36
2021/05/08 01:38:07;;;;;;;;;;;;;;;20.33;47.53;101284.53;2101655;28;3928;-34
2021/05/08 01:39:07;;;;;;;;;;;;;;;20.33;47.47;101283.72;2101397;28;4189;-34
2021/05/08 01:40:11;;;;;;;;;;;;;;;20.33;47.47;101284.53;2101881;28;4036;-34
2021/05/08 01:41:12;;;;;;;;;;;;;;;20.33;47.58;101276.03;2101855;28;4055;-37
2021/05/08 01:42:12;;;;;;;;;;;;;;;20.33;47.61;101287.38;2101899;28;3887;-31
2021/05/08 01:43:13;;;;;;;;;;;;;;;20.33;47.64;101290.22;2101676;28;3887;-32
2021/05/08 01:44:14;;;;;;;;;;;;;;;20.34;47.50;101286.22;2101191;28;3948;-31
2021/05/08 01:45:14;;;;;;;;;;;;;;;20.33;47.54;101286.56;2102384;28;3893;-34
2021/05/08 01:46:15;;;;;;;;;;;;;;;20.34;47.49;101289.03;2101971;28;3954;-35
2021/05/08 01:47:16;;;;;;;;;;;;;;;20.34;47.62;101291.88;2101472;28;4096;-34
2021/05/08 01:48:17;;;;;;;;;;;;;;;20.35;47.51;101287.06;2101438;28;4035;-34
2021/05/08 01:49:18;;;;;;;;;;;;;;;20.35;47.53;101278.53;2102486;28;4008;-35
2021/05/08 01:50:19;;;;;;;;;;;;;;;20.36;47.68;101288.72;2102021;28;3911;-36
2021/05/08 01:51:19;;;;;;;;;;;;;;;20.34;47.54;101286.22;2101502;28;4078;-36
2021/05/08 01:52:20;;;;;;;;;;;;;;;20.35;47.58;101293.56;2101580;28;4036;-33
2021/05/08 01:53:22;;;;;;;;;;;;;;;20.35;47.65;101293.56;2101335;28;4049;-35
2021/05/08 01:54:22;;;;;;;;;;;;;;;20.36;47.60;101294.41;2100415;28;4040;-30
2021/05/08 01:55:23;;;;;;;;;;;;;;;20.35;47.50;101298.44;2102480;28;3917;-33
2021/05/08 01:56:24;;;;;;;;;;;;;;;20.34;47.66;101303.25;2100158;28;3921;-34
2021/05/08 01:57:25;;;;;;;;;;;;;;;20.35;47.65;101301.28;2101876;28;4020;-33
2021/05/08 01:58:25;;;;;;;;;;;;;;;20.34;47.66;101300.41;2101520;28;3886;-32
2021/05/08 01:59:26;;;;;;;;;;;;;;;20.35;47.68;101302.09;2101439;28;4095;-36
2021/05/08 02:00:27;;;;;;;;;;;;;;;20.35;47.68;101304.94;2101668;28;4063;-32
2021/05/08 02:01:28;;;;;;;;;;;;;;;20.35;47.65;101302.09;2101689;28;3874;-38
2021/05/08 02:02:28;;;;;;;;;;;;;;;20.35;47.68;101302.09;2101389;28;3921;-34
2021/05/08 02:03:29;;;;;;;;;;;;;;;20.36;47.61;101300.91;2101933;28;4040;-31
2021/05/08 02:04:30;;;;;;;;;;;;;;;20.36;47.55;101300.91;2102378;28;4041;-33
2021/05/08 02:05:31;;;;;;;;;;;;;;;20.36;47.55;101295.25;2102002;28;4047;-36
2021/05/08 02:06:31;;;;;;;;;;;;;;;20.36;47.77;101295.25;2101396;28;4041;-35
2021/05/08 02:07:32;;;;;;;;;;;;;;;20.36;47.66;101303.75;2102216;28;4106;-33
2021/05/08 02:08:33;;;;;;;;;;;;;;;20.37;47.61;101296.94;2101320;28;4098;-34
2021/05/08 02:09:33;;;;;;;;;;;;;;;20.37;47.60;101290.38;2101936;28;3913;-33
2021/05/08 02:10:34;;;;;;;;;;;;;;;20.36;47.62;101289.56;2101139;28;4025;-34
2021/05/08 02:11:35;;;;;;;;;;;;;;;20.37;47.59;101277.03;2101462;28;4052;-30
2021/05/08 02:12:38;;;;;;;;;;;;;;;20.37;47.62;101288.41;2101457;28;4024;-34
2021/05/08 02:13:39;;;;;;;;;;;;;;;20.36;47.62;101286.72;2101285;28;4020;-37
2021/05/08 02:14:40;;;;;;;;;;;;;;;20.37;47.63;101290.38;2100207;28;3910;-31
2021/05/08 02:15:41;;;;;;;;;;;;;;;20.37;47.75;101296.94;2101818;28;3983;-30
2021/05/08 02:16:42;;;;;;;;;;;;;;;20.39;47.66;101293.72;2101813;28;4130;-32
2021/05/08 02:17:42;;;;;;;;;;;;;;;20.38;47.63;101292.06;2100836;28;4102;-33
2021/05/08 02:18:43;;;;;;;;;;;;;;;20.38;47.67;101284.38;2097913;28;3861;-36
2021/05/08 02:19:44;;;;;;;;;;;;;;;20.39;47.62;101294.56;2102058;28;3999;-35
2021/05/08 02:20:45;;;;;;;;;;;;;;;20.38;47.67;101294.91;2097941;28;4087;-35
2021/05/08 02:21:45;;;;;;;;;;;;;;;20.38;47.76;101292.91;2101685;28;4058;-35
2021/05/08 02:22:46;;;;;;;;;;;;;;;20.38;47.66;101289.22;2099697;28;3994;-33
2021/05/08 02:23:47;;;;;;;;;;;;;;;20.38;47.71;101300.59;2101945;28;4268;-34
2021/05/08 02:24:48;;;;;;;;;;;;;;;20.37;47.61;101294.09;2101906;28;3949;-34
2021/05/08 02:25:48;;;;;;;;;;;;;;;20.39;47.71;101293.72;2101043;28;3887;-35
2021/05/08 02:26:49;;;;;;;;;;;;;;;20.38;47.69;101295.75;2101520;28;3968;-33
2021/05/08 02:27:50;;;;;;;;;;;;;;;20.38;47.77;101292.06;2101807;28;4063;-33
2021/05/08 02:28:50;;;;;;;;;;;;;;;20.39;47.63;101286.03;2100610;28;3882;-35
2021/05/08 02:29:51;;;;;;;;;;;;;;;20.38;47.76;101284.38;2101495;28;4006;-33
2021/05/08 02:30:52;;;;;;;;;;;;;;;20.38;47.81;101297.75;2092580;28;3962;-28
2021/05/08 02:31:52;;;;;;;;;;;;;;;20.39;47.79;101293.72;2090867;28;3866;-30
2021/05/08 02:32:53;;;;;;;;;;;;;;;20.39;47.80;101305.09;2097322;28;4104;-33
2021/05/08 02:33:54;;;;;;;;;;;;;;;20.38;47.69;101303.44;2101617;28;3988;-35
2021/05/08 02:34:55;;;;;;;;;;;;;;;20.40;47.72;101301.06;2101978;28;4000;-34
2021/05/08 02:35:56;;;;;;;;;;;;;;;20.39;47.68;101299.41;2100854;28;3992;-32
2021/05/08 02:36:56;;;;;;;;;;;;;;;20.40;47.79;101307.63;2101495;28;4119;-31
2021/05/08 02:37:57;;;;;;;;;;;;;;;20.40;47.77;101301.06;2100878;28;3886;-31
2021/05/08 02:38:58;;;;;;;;;;;;;;;20.39;47.83;101297.41;2101637;28;4013;-33
2021/05/08 02:39:58;;;;;;;;;;;;;;;20.39;47.72;101300.25;2101386;28;4058;-33
2021/05/08 02:40:59;;;;;;;;;;;;;;;20.40;47.67;101299.09;2100794;28;3901;-33
2021/05/08 02:42:00;;;;;;;;;;;;;;;20.40;47.75;101301.94;2101806;28;4002;-33
2021/05/08 02:43:00;;;;;;;;;;;;;;;20.40;47.68;101296.25;2101169;28;3907;-34
2021/05/08 02:44:01;;;;;;;;;;;;;;;20.40;47.60;101304.78;2100144;28;4892;-31
2021/05/08 02:45:02;;;;;;;;;;;;;;;20.40;47.79;101301.94;2101436;28;3970;-36
2021/05/08 02:46:03;;;;;;;;;;;;;;;20.40;47.70;101303.91;2100820;28;4066;-34
2021/05/08 02:47:03;;;;;;;;;;;;;;;20.41;47.67;101305.59;2101361;28;4066;-34
2021/05/08 02:48:04;;;;;;;;;;;;;;;20.40;47.71;101301.94;2101292;28;4039;-35
2021/05/08 02:49:05;;;;;;;;;;;;;;;20.41;47.73;101305.59;2101283;28;4220;-32
2021/05/08 02:50:05;;;;;;;;;;;;;;;20.40;47.81;101306.75;2100223;28;4129;-32
2021/05/08 02:51:06;;;;;;;;;;;;;;;20.40;47.76;101307.63;2101825;28;4093;-34
2021/05/08 02:52:07;;;;;;;;;;;;;;;20.41;47.68;101309.28;2101063;28;4027;-31
2021/05/08 02:53:08;;;;;;;;;;;;;;;20.42;47.69;101301.56;2101730;28;4231;-33
2021/05/08 02:54:08;;;;;;;;;;;;;;;20.42;47.77;101302.41;2101470;28;4155;-35
2021/05/08 02:55:09;;;;;;;;;;;;;;;20.42;47.75;101304.41;2101639;28;3902;-31
2021/05/08 02:56:10;;;;;;;;;;;;;;;20.42;47.80;101310.94;2101398;28;4025;-33
2021/05/08 02:57:11;;;;;;;;;;;;;;;20.42;47.77;101310.94;2100801;28;3957;-36
2021/05/08 02:58:11;;;;;;;;;;;;;;;20.42;47.83;101308.09;2101953;28;4025;-34
2021/05/08 02:59:12;;;;;;;;;;;;;;;20.42;47.76;101308.09;2100545;28;3894;-32
2021/05/08 03:00:13;;;;;;;;;;;;;;;20.43;47.72;101309.78;2100741;28;4048;-35
2021/05/08 03:01:13;;;;;;;;;;;;;;;20.42;47.83;101310.09;2101097;28;3876;-34
2021/05/08 03:02:14;;;;;;;;;;;;;;;20.43;47.74;101309.78;2101115;28;4042;-29
2021/05/08 03:03:15;;;;;;;;;;;;;;;20.44;47.78;101310.59;2100125;28;4251;-36
2021/05/08 03:04:16;;;;;;;;;;;;;;;20.43;47.73;101315.47;2099681;28;4386;-33
2021/05/08 03:05:16;;;;;;;;;;;;;;;20.43;47.70;101309.78;2101042;28;4040;-30
2021/05/08 03:06:17;;;;;;;;;;;;;;;20.44;47.69;101311.44;2101693;28;4236;-33
2021/05/08 03:07:18;;;;;;;;;;;;;;;20.43;47.72;101312.63;2101873;28;3882;-38
2021/05/08 03:08:19;;;;;;;;;;;;;;;20.42;47.61;101316.63;2100406;28;3858;-29
2021/05/08 03:09:20;;;;;;;;;;;;;;;20.44;47.77;101310.59;2101473;28;4084;-34
2021/05/08 03:10:21;;;;;;;;;;;;;;;20.43;47.69;101311.78;2101590;28;4017;-31
2021/05/08 03:11:22;;;;;;;;;;;;;;;20.44;47.52;101314.28;2101032;28;4123;-35
2021/05/08 03:12:22;;;;;;;;;;;;;;;20.44;47.69;101316.28;2101569;28;4968;-32
2021/05/08 03:13:24;;;;;;;;;;;;;;;20.43;47.65;101320.31;2100062;28;3890;-32
2021/05/08 03:14:25;;;;;;;;;;;;;;;20.43;47.78;101324.00;2099461;28;3850;-32
2021/05/08 03:15:36;;;;;;;;;;;;;;;20.44;47.74;101325.66;2101128;28;4171;-30
2021/05/08 03:16:39;;;;;;;;;;;;;;;20.43;47.69;101318.31;2101316;28;4044;-33
2021/05/08 03:17:40;;;;;;;;;;;;;;;20.44;47.39;101319.97;2101116;28;4027;-32
2021/05/08 03:18:41;;;;;;;;;;;;;;;20.43;47.71;101318.31;2100275;28;3978;-30
2021/05/08 03:19:42;;;;;;;;;;;;;;;20.43;47.63;101326.84;2101390;28;3999;-30
2021/05/08 03:20:42;;;;;;;;;;;;;;;20.43;47.73;101324.00;2101482;28;3998;-32
2021/05/08 03:21:43;;;;;;;;;;;;;;;20.44;47.73;101319.97;2100566;28;4018;-30
2021/05/08 03:22:44;;;;;;;;;;;;;;;20.44;47.71;101324.81;2101513;28;4069;-30
2021/05/08 03:23:45;;;;;;;;;;;;;;;20.44;47.71;101319.97;2100916;28;4025;-32
2021/05/08 03:24:46;;;;;;;;;;;;;;;20.44;47.61;101322.81;2100523;28;3878;-31
2021/05/08 03:25:46;;;;;;;;;;;;;;;20.43;47.72;101312.63;2101237;28;4000;-36
2021/05/08 03:26:47;;;;;;;;;;;;;;;20.43;47.57;101323.16;2101686;28;3908;-36
2021/05/08 03:27:48;;;;;;;;;;;;;;;20.44;47.65;101327.66;2100586;28;3850;-31
2021/05/08 03:28:49;;;;;;;;;;;;;;;20.44;47.58;101324.81;2101112;28;3869;-34
2021/05/08 03:29:49;;;;;;;;;;;;;;;20.44;47.67;101322.81;2101343;28;3963;-31
2021/05/08 03:30:50;;;;;;;;;;;;;;;20.44;47.69;101322.81;2100036;28;3979;-35
2021/05/08 03:31:51;;;;;;;;;;;;;;;20.45;47.54;101329.31;2101038;28;3872;-30
2021/05/08 03:32:52;;;;;;;;;;;;;;;20.44;47.58;101328.50;2101158;28;4019;-33
2021/05/08 03:33:53;;;;;;;;;;;;;;;20.43;47.74;101329.69;2100874;28;4015;-31
2021/05/08 03:34:53;;;;;;;;;;;;;;;20.44;47.70;101324.81;2100444;28;3880;-33
2021/05/08 03:35:54;;;;;;;;;;;;;;;20.44;47.61;101324.81;2100803;28;4029;-30
2021/05/08 03:36:55;;;;;;;;;;;;;;;20.44;47.74;101330.50;2100939;28;3960;-34
2021/05/08 03:37:56;;;;;;;;;;;;;;;20.43;47.62;101326.00;2101640;28;4009;-34
2021/05/08 03:38:57;;;;;;;;;;;;;;;20.43;47.78;101329.69;2097737;28;4177;-36
2021/05/08 03:39:58;;;;;;;;;;;;;;;20.44;47.60;101333.34;2100987;28;3795;-36
2021/05/08 03:40:58;;;;;;;;;;;;;;;20.43;47.63;101335.34;2101240;28;4061;-33
2021/05/08 03:41:59;;;;;;;;;;;;;;;20.44;47.61;101331.34;2101334;28;3999;-32
2021/05/08 03:43:00;;;;;;;;;;;;;;;20.45;47.63;101340.69;2097862;28;3944;-34
2021/05/08 03:44:01;;;;;;;;;;;;;;;20.44;47.64;101337.00;2100948;28;3840;-35
2021/05/08 03:45:01;;;;;;;;;;;;;;;20.44;47.64;101330.50;2101115;28;4448;-33
2021/05/08 03:46:02;;;;;;;;;;;;;;;20.44;47.51;101339.84;2101414;28;4043;-36
2021/05/08 03:47:03;;;;;;;;;;;;;;;20.44;47.70;101339.84;2099609;28;3912;-32
2021/05/08 03:48:04;;;;;;;;;;;;;;;20.44;47.58;101339.84;2101446;28;3885;-32
2021/05/08 03:49:05;;;;;;;;;;;;;;;20.44;47.61;101330.50;2101733;28;4140;-32
2021/05/08 03:50:06;;;;;;;;;;;;;;;20.45;47.59;101337.84;2100509;28;4116;-38
2021/05/08 03:51:07;;;;;;;;;;;;;;;20.44;47.64;101341.88;2101060;28;4026;-35
2021/05/08 03:52:07;;;;;;;;;;;;;;;20.43;47.58;101335.34;2101337;28;4058;-35
2021/05/08 03:53:08;;;;;;;;;;;;;;;20.44;47.58;101339.84;2100480;28;4970;-30
2021/05/08 03:54:09;;;;;;;;;;;;;;;20.43;47.60;101338.19;2101042;28;4012;-32
2021/05/08 03:55:10;;;;;;;;;;;;;;;20.43;47.54;101341.03;2100329;28;3866;-32
2021/05/08 03:56:10;;;;;;;;;;;;;;;20.44;47.70;101341.88;2101188;28;4052;-31
2021/05/08 03:57:11;;;;;;;;;;;;;;;20.44;47.66;101341.88;2101175;28;4043;-34
2021/05/08 03:58:12;;;;;;;;;;;;;;;20.44;47.46;101348.38;2101748;28;4190;-32
2021/05/08 03:59:13;;;;;;;;;;;;;;;20.44;47.58;101341.88;2099872;28;4118;-32
2021/05/08 04:00:14;;;;;;;;;;;;;;;20.45;47.64;101349.22;2101130;28;4017;-33
2021/05/08 04:01:14;;;;;;;;;;;;;;;20.44;47.74;101351.22;2100846;28;4181;-35
2021/05/08 04:02:15;;;;;;;;;;;;;;;20.45;47.61;101349.22;2100912;28;3853;-35
2021/05/08 04:03:16;;;;;;;;;;;;;;;20.45;47.59;101350.06;2100883;28;4012;-33
2021/05/08 04:04:17;;;;;;;;;;;;;;;20.45;47.59;101350.06;2101462;28;4044;-36
2021/05/08 04:05:17;;;;;;;;;;;;;;;20.46;47.49;101348.06;2101100;28;3825;-37
2021/05/08 04:06:18;;;;;;;;;;;;;;;20.46;47.57;101351.72;2100249;28;3893;-37
2021/05/08 04:07:19;;;;;;;;;;;;;;;20.46;47.50;101354.56;2100835;28;4222;-30
2021/05/08 04:08:20;;;;;;;;;;;;;;;20.46;47.67;101348.91;2096798;28;4047;-35
2021/05/08 04:09:21;;;;;;;;;;;;;;;20.45;47.73;101347.22;2101027;28;4023;-30
2021/05/08 04:10:22;;;;;;;;;;;;;;;20.46;47.59;101348.91;2101139;28;4026;-33
2021/05/08 04:11:23;;;;;;;;;;;;;;;20.46;47.72;101350.91;2101321;28;3954;-33
2021/05/08 04:12:24;;;;;;;;;;;;;;;20.46;47.67;101354.56;2101051;28;3889;-31
2021/05/08 04:13:25;;;;;;;;;;;;;;;20.46;47.48;101360.25;2100921;28;4067;-37
2021/05/08 04:14:25;;;;;;;;;;;;;;;20.47;47.71;101352.56;2101370;28;3998;-34
2021/05/08 04:15:26;;;;;;;;;;;;;;;20.46;47.67;101357.41;2101184;28;3894;-31
2021/05/08 04:16:27;;;;;;;;;;;;;;;20.48;47.71;101357.06;2102608;28;4026;-35
2021/05/08 04:17:28;;;;;;;;;;;;;;;20.47;47.71;101359.06;2101847;28;4000;-33
2021/05/08 04:18:29;;;;;;;;;;;;;;;20.49;47.52;101367.28;2102448;28;4075;-34
2021/05/08 04:19:30;;;;;;;;;;;;;;;20.47;47.63;101364.75;2102825;28;4045;-30
2021/05/08 04:20:31;;;;;;;;;;;;;;;20.48;47.71;101368.44;2102880;28;4004;-32
2021/05/08 04:21:36;;;;;;;;;;;;;;;20.47;47.68;101367.59;2102692;28;4031;-33
2021/05/08 04:22:37;;;;;;;;;;;;;;;20.47;47.72;101359.06;2102122;28;4017;-34
2021/05/08 04:23:38;;;;;;;;;;;;;;;20.48;47.78;101365.59;2102716;28;4056;-33
2021/05/08 04:24:39;;;;;;;;;;;;;;;20.48;47.77;101362.75;2102334;28;4210;-35
2021/05/08 04:25:39;;;;;;;;;;;;;;;20.47;47.71;101370.44;2101473;28;4026;-34
2021/05/08 04:26:40;;;;;;;;;;;;;;;20.45;47.75;101367.13;2102885;28;3898;-35
2021/05/08 04:27:41;;;;;;;;;;;;;;;20.45;47.73;101366.28;2102586;28;3887;-33
2021/05/08 04:28:42;;;;;;;;;;;;;;;20.44;47.61;101364.63;2102758;28;3988;-35
2021/05/08 04:29:42;;;;;;;;;;;;;;;20.43;47.79;101360.09;2102389;28;3953;-33
2021/05/08 04:30:43;;;;;;;;;;;;;;;20.42;47.71;101364.94;2101998;28;4024;-32
2021/05/08 04:31:51;;;;;;;;;;;;;;;20.42;47.61;101362.09;2102608;28;4044;-36
2021/05/08 04:32:52;;;;;;;;;;;;;;;20.43;47.71;101369.47;2102660;28;3995;-33
2021/05/08 04:33:53;;;;;;;;;;;;;;;20.43;47.69;101368.63;2102846;28;3863;-32
2021/05/08 04:34:54;;;;;;;;;;;;;;;20.42;47.70;101364.94;2101348;28;3822;-29
2021/05/08 04:35:55;;;;;;;;;;;;;;;20.42;47.69;101361.25;2102035;28;4041;-34
2021/05/08 04:36:55;;;;;;;;;;;;;;;20.42;47.58;101364.94;2102466;28;4004;-35
2021/05/08 04:37:56;;;;;;;;;;;;;;;20.42;47.63;101367.78;2102877;28;3846;-34
2021/05/08 04:38:57;;;;;;;;;;;;;;;20.41;47.51;101360.44;2102349;28;3974;-36
2021/05/08 04:39:57;;;;;;;;;;;;;;;20.42;47.55;101375.47;2102175;28;3936;-33
2021/05/08 04:40:58;;;;;;;;;;;;;;;20.42;47.50;101379.13;2102981;28;3980;-33
2021/05/08 04:41:59;;;;;;;;;;;;;;;20.41;47.49;101371.81;2101719;28;4022;-34
2021/05/08 04:43:00;;;;;;;;;;;;;;;20.41;47.41;101371.81;2102422;28;4055;-34
2021/05/08 04:44:00;;;;;;;;;;;;;;;20.41;47.53;101380.31;2102623;28;3981;-30
2021/05/08 04:45:01;;;;;;;;;;;;;;;20.41;47.49;101373.81;2102831;28;3899;-31
2021/05/08 04:46:02;;;;;;;;;;;;;;;20.40;47.46;101375.81;2102413;28;4655;-33
2021/05/08 04:47:04;;;;;;;;;;;;;;;20.41;47.59;101370.97;2102177;28;4047;-32
2021/05/08 04:48:05;;;;;;;;;;;;;;;20.41;47.55;101373.81;2102663;28;4995;-36
2021/05/08 04:49:06;;;;;;;;;;;;;;;20.41;47.32;101371.81;2102914;28;3935;-29
2021/05/08 04:50:06;;;;;;;;;;;;;;;20.40;47.51;101375.81;2102236;28;4056;-35
2021/05/08 04:51:07;;;;;;;;;;;;;;;20.40;47.49;101372.97;2100982;28;4048;-35
2021/05/08 04:52:08;;;;;;;;;;;;;;;20.40;47.36;101381.50;2102864;28;4035;-35
2021/05/08 04:53:09;;;;;;;;;;;;;;;20.40;47.32;101378.66;2102222;28;4241;-30
2021/05/08 04:54:09;;;;;;;;;;;;;;;20.40;47.36;101381.50;2102259;28;4089;-32
2021/05/08 04:55:10;;;;;;;;;;;;;;;20.40;47.35;101377.81;2101240;28;4131;-32
2021/05/08 04:56:11;;;;;;;;;;;;;;;20.41;47.39;101376.66;2101810;28;4072;-32
2021/05/08 04:57:12;;;;;;;;;;;;;;;20.40;47.42;101381.50;2102558;28;3947;-35
2021/05/08 04:58:12;;;;;;;;;;;;;;;20.40;47.35;101378.66;2102721;28;4065;-32
2021/05/08 04:59:13;;;;;;;;;;;;;;;20.39;47.34;101374.13;2102567;28;4041;-30
2021/05/08 05:00:14;;;;;;;;;;;;;;;20.40;47.32;101380.66;2102155;28;4104;-33
2021/05/08 05:01:15;;;;;;;;;;;;;;;20.39;47.35;101376.97;2102167;28;4018;-31
2021/05/08 05:02:15;;;;;;;;;;;;;;;20.40;47.31;101381.50;2101545;28;4067;-31
2021/05/08 05:03:16;;;;;;;;;;;;;;;20.39;47.34;101379.81;2102088;28;4042;-34
2021/05/08 05:04:17;;;;;;;;;;;;;;;20.39;47.06;101385.50;2100905;28;3864;-35
2021/05/08 05:05:18;;;;;;;;;;;;;;;20.39;47.32;101385.50;2102221;28;4009;-35
2021/05/08 05:06:18;;;;;;;;;;;;;;;20.39;47.41;101382.66;2102407;28;3875;-34
2021/05/08 05:07:20;;;;;;;;;;;;;;;20.39;47.22;101379.00;2102419;28;3839;-32
2021/05/08 05:08:21;;;;;;;;;;;;;;;20.39;47.25;101379.81;2102325;28;4060;-35
2021/05/08 05:09:23;;;;;;;;;;;;;;;20.39;47.25;101382.66;2100310;28;4039;-33
2021/05/08 05:10:24;;;;;;;;;;;;;;;20.38;47.38;101383.84;2101415;28;4155;-32
2021/05/08 05:11:26;;;;;;;;;;;;;;;20.39;47.35;101390.34;2102516;28;4225;-32
2021/05/08 05:12:27;;;;;;;;;;;;;;;20.38;47.29;101383.84;2101078;28;4062;-35
2021/05/08 05:13:28;;;;;;;;;;;;;;;20.38;47.21;101383.84;2098582;28;3868;-30
2021/05/08 05:14:29;;;;;;;;;;;;;;;20.38;47.34;101386.69;2102003;28;4061;-30
2021/05/08 05:15:30;;;;;;;;;;;;;;;20.37;47.24;101382.19;2100153;28;4042;-33
2021/05/08 05:16:31;;;;;;;;;;;;;;;20.38;47.37;101383.00;2100309;28;4579;-36
2021/05/08 05:17:31;;;;;;;;;;;;;;;20.38;47.25;101391.53;2099013;28;4047;-36